Time;durP1;ratioP1;P1;durP2;ratioP2;P2;SDS_P1;SDS_P2;PMS_P1;PMS_P2;Temp;Humidity;BMP_temperature;BMP_pressure;BME280_temperature;BME280_humidity;BME280_pressure;Samples;Min_cycle;Max_cycle;Signal;HPM_P1;HPM_P2
2021/01/11 00:02:22;;;;;;;18.17;8.85;;;7.20;99.90;;;;;;4953161;28;20202;-71
2021/01/11 00:04:49;;;;;;;18.83;9.23;;;7.20;99.90;;;;;;4954342;28;20202;-71
2021/01/11 00:07:15;;;;;;;16.65;9.00;;;7.20;99.90;;;;;;4953292;28;20698;-71
2021/01/11 00:09:42;;;;;;;16.33;9.48;;;7.20;99.90;;;;;;4962730;28;20202;-73
2021/01/11 00:12:09;;;;;;;17.65;9.88;;;7.20;99.90;;;;;;4953284;28;20206;-73
2021/01/11 00:14:36;;;;;;;16.25;9.98;;;7.20;99.90;;;;;;4954785;28;20568;-72
2021/01/11 00:17:02;;;;;;;17.92;9.38;;;7.20;99.90;;;;;;4953381;28;20210;-71
2021/01/11 00:19:28;;;;;;;25.85;10.15;;;7.20;99.90;;;;;;4953289;28;20610;-71
2021/01/11 00:21:55;;;;;;;16.52;9.20;;;7.20;99.90;;;;;;4953725;28;20209;-73
2021/01/11 00:24:21;;;;;;;16.88;8.73;;;7.20;99.90;;;;;;4953980;28;20202;-72
2021/01/11 00:26:51;;;;;;;14.80;7.65;;;7.20;99.90;;;;;;4953536;28;20206;-72
2021/01/11 00:29:19;;;;;;;13.02;6.45;;;7.20;99.90;;;;;;4955849;28;20659;-72
2021/01/11 00:31:45;;;;;;;9.50;6.57;;;7.20;99.90;;;;;;4971027;28;20226;-73
2021/01/11 00:34:11;;;;;;;12.85;6.97;;;7.10;99.90;;;;;;4973012;28;20681;-72
2021/01/11 00:36:38;;;;;;;13.63;7.63;;;7.10;99.90;;;;;;4968910;28;20202;-72
2021/01/11 00:39:05;;;;;;;12.52;7.05;;;7.10;99.90;;;;;;4954185;28;20202;-72
2021/01/11 00:41:32;;;;;;;15.23;7.68;;;7.10;99.90;;;;;;4952791;28;20209;-75
2021/01/11 00:43:58;;;;;;;15.65;8.07;;;7.10;99.90;;;;;;4952748;28;20194;-72
2021/01/11 00:46:28;;;;;;;15.95;8.07;;;7.10;99.90;;;;;;4952967;28;20205;-72
2021/01/11 00:48:56;;;;;;;14.80;8.60;;;7.10;99.90;;;;;;4967276;28;20206;-71
2021/01/11 00:51:23;;;;;;;14.27;8.57;;;7.10;99.90;;;;;;4950718;28;20706;-71
2021/01/11 00:53:53;;;;;;;13.27;8.30;;;7.10;99.90;;;;;;4951942;28;20287;-72
2021/01/11 00:56:22;;;;;;;15.25;8.35;;;7.10;99.90;;;;;;4952010;28;20230;-72
2021/01/11 00:58:48;;;;;;;17.38;9.13;;;7.10;99.90;;;;;;4953336;28;20203;-71
2021/01/11 01:01:19;;;;;;;16.65;9.32;;;7.10;99.90;;;;;;4951148;28;20281;-72
2021/01/11 01:03:50;;;;;;;15.82;9.15;;;7.00;99.90;;;;;;4952108;28;20203;-72
2021/01/11 01:06:18;;;;;;;17.20;9.65;;;7.00;99.90;;;;;;4953811;28;20312;-72
2021/01/11 01:08:44;;;;;;;16.27;9.60;;;7.00;99.90;;;;;;4952461;28;20202;-71
2021/01/11 01:11:11;;;;;;;18.15;9.50;;;7.00;99.90;;;;;;4953371;28;20209;-72
2021/01/11 01:13:38;;;;;;;20.92;10.30;;;7.00;99.90;;;;;;4950518;28;20253;-72
2021/01/11 01:16:05;;;;;;;20.58;10.65;;;7.00;99.90;;;;;;4952670;28;20206;-71
2021/01/11 01:18:31;;;;;;;19.13;10.52;;;6.90;99.90;;;;;;4951047;28;20262;-72
2021/01/11 01:20:59;;;;;;;19.45;9.65;;;6.90;99.90;;;;;;4952522;28;20213;-72
2021/01/11 01:23:25;;;;;;;19.83;10.82;;;6.90;99.90;;;;;;4952543;28;20195;-71
2021/01/11 01:25:51;;;;;;;16.92;10.40;;;6.90;99.90;;;;;;4953270;28;20277;-72
2021/01/11 01:28:18;;;;;;;18.77;10.30;;;6.90;99.90;;;;;;4952508;28;20207;-71
2021/01/11 01:30:44;;;;;;;22.60;10.77;;;7.00;99.90;;;;;;4952730;28;20203;-72
2021/01/11 01:33:11;;;;;;;19.30;9.98;;;7.00;99.90;;;;;;4952206;28;20245;-72
2021/01/11 01:35:37;;;;;;;19.58;11.07;;;6.90;99.90;;;;;;4952532;28;20211;-72
2021/01/11 01:38:04;;;;;;;21.05;10.10;;;7.00;99.90;;;;;;4950634;28;20220;-71
2021/01/11 01:40:31;;;;;;;21.02;10.32;;;7.00;99.90;;;;;;4952989;28;20582;-71
2021/01/11 01:42:57;;;;;;;16.08;9.23;;;7.00;99.90;;;;;;4951728;28;20674;-72
2021/01/11 01:45:23;;;;;;;19.15;8.52;;;7.00;99.90;;;;;;4952032;28;20211;-71
2021/01/11 01:47:50;;;;;;;16.20;7.68;;;7.00;99.90;;;;;;4951523;28;20202;-72
2021/01/11 01:50:16;;;;;;;17.13;7.60;;;7.00;99.90;;;;;;4959482;28;20277;-71
2021/01/11 01:52:44;;;;;;;18.48;7.63;;;7.00;99.90;;;;;;4970781;28;20700;-72
2021/01/11 01:55:12;;;;;;;17.17;7.10;;;7.00;99.90;;;;;;4974273;28;20313;-72
2021/01/11 01:57:39;;;;;;;12.90;7.00;;;7.00;99.90;;;;;;4990545;28;20201;-71
2021/01/11 02:00:10;;;;;;;14.77;6.30;;;7.00;99.90;;;;;;4971367;28;20642;-72
2021/01/11 02:02:40;;;;;;;15.90;6.25;;;7.10;99.90;;;;;;4970502;28;20701;-71
2021/01/11 02:05:07;;;;;;;12.82;6.50;;;7.00;99.90;;;;;;4971129;28;20674;-71
2021/01/11 02:07:53;;;;;;;10.07;5.65;;;7.10;99.90;;;;;;4969609;28;20206;-72
2021/01/11 02:10:33;;;;;;;12.95;5.60;;;7.10;99.90;;;;;;4970415;28;20220;-72
2021/01/11 02:13:15;;;;;;;15.65;4.82;;;7.10;99.90;;;;;;4971184;28;20752;-72
2021/01/11 02:15:48;;;;;;;10.65;4.57;;;7.10;99.90;;;;;;4970911;28;20288;-71
2021/01/11 02:18:21;;;;;;;9.35;4.45;;;7.10;99.90;;;;;;4971303;28;20688;-72
2021/01/11 02:21:12;;;;;;;10.75;4.15;;;7.10;99.90;;;;;;4970932;28;20213;-72
2021/01/11 02:24:03;;;;;;;15.77;5.07;;;7.10;99.90;;;;;;4971692;28;20209;-72
2021/01/11 02:27:06;;;;;;;13.30;4.97;;;7.10;99.90;;;;;;4971262;28;20206;-71
2021/01/11 02:29:58;;;;;;;18.17;4.95;;;7.10;99.90;;;;;;4966751;28;20213;-72
2021/01/11 02:32:26;;;;;;;12.32;4.40;;;7.10;99.90;;;;;;4988254;28;20689;-71
2021/01/11 02:34:55;;;;;;;11.07;4.30;;;7.10;99.90;;;;;;4983625;28;20330;-72
2021/01/11 02:37:22;;;;;;;13.68;4.68;;;7.10;99.90;;;;;;4971149;28;20206;-72
2021/01/11 02:39:49;;;;;;;13.48;4.95;;;7.10;99.90;;;;;;4970643;28;20220;-72
2021/01/11 02:42:15;;;;;;;8.50;4.70;;;7.10;99.90;;;;;;4987600;28;20244;-72
2021/01/11 02:44:42;;;;;;;15.48;5.20;;;7.10;99.90;;;;;;4984259;28;20209;-72
2021/01/11 02:47:09;;;;;;;8.55;4.72;;;7.10;99.90;;;;;;4970646;28;20201;-72
2021/01/11 02:49:39;;;;;;;10.27;4.72;;;7.10;99.90;;;;;;4969892;28;20918;-72
2021/01/11 02:52:11;;;;;;;16.42;5.38;;;7.10;99.90;;;;;;4971224;28;20562;-72
2021/01/11 02:54:41;;;;;;;15.02;5.65;;;7.10;99.90;;;;;;4970036;28;20567;-72
2021/01/11 02:57:15;;;;;;;11.65;4.97;;;7.10;99.90;;;;;;4971290;28;20240;-71
2021/01/11 02:59:46;;;;;;;12.23;5.38;;;7.10;99.90;;;;;;4969338;28;20216;-72
2021/01/11 03:02:17;;;;;;;14.68;5.40;;;7.10;99.90;;;;;;4954681;28;20234;-71
2021/01/11 03:04:45;;;;;;;13.60;4.85;;;7.10;99.90;;;;;;4969968;28;20257;-72
2021/01/11 03:07:11;;;;;;;13.52;4.13;;;7.10;99.90;;;;;;4970226;28;20212;-71
2021/01/11 03:09:39;;;;;;;12.43;4.60;;;7.10;99.90;;;;;;4975003;28;20236;-72
2021/01/11 03:12:06;;;;;;;12.95;4.00;;;7.10;99.90;;;;;;4970985;28;20625;-72
2021/01/11 03:14:32;;;;;;;9.63;3.78;;;7.10;99.90;;;;;;4969168;28;20655;-71
2021/01/11 03:16:58;;;;;;;12.73;4.10;;;7.10;99.90;;;;;;4956589;28;20209;-71
2021/01/11 03:19:26;;;;;;;14.15;4.38;;;7.10;99.90;;;;;;4953103;28;20210;-71
2021/01/11 03:21:52;;;;;;;11.20;4.47;;;7.10;99.90;;;;;;4967217;28;20202;-72
2021/01/11 03:24:19;;;;;;;14.48;4.80;;;7.10;99.90;;;;;;4952838;28;20217;-72
2021/01/11 03:26:46;;;;;;;12.05;4.70;;;7.10;99.90;;;;;;4980142;28;20213;-72
2021/01/11 03:29:13;;;;;;;14.05;4.97;;;7.10;99.90;;;;;;4970238;28;20204;-71
2021/01/11 03:31:41;;;;;;;13.50;5.10;;;7.10;99.90;;;;;;4969786;28;20218;-72
2021/01/11 03:34:09;;;;;;;13.77;4.45;;;7.10;99.90;;;;;;4970272;28;20186;-72
2021/01/11 03:36:36;;;;;;;12.48;4.75;;;7.10;99.90;;;;;;4970968;28;20232;-72
2021/01/11 03:39:04;;;;;;;17.30;5.18;;;7.10;99.90;;;;;;4970422;28;20201;-72
2021/01/11 03:41:30;;;;;;;10.23;5.05;;;7.10;99.90;;;;;;4973905;28;20202;-72
2021/01/11 03:43:56;;;;;;;15.55;4.93;;;7.10;99.90;;;;;;4972702;28;20210;-71
2021/01/11 03:46:22;;;;;;;8.93;4.40;;;7.10;99.90;;;;;;4966194;28;20210;-71
2021/01/11 03:48:49;;;;;;;14.70;5.15;;;7.10;99.90;;;;;;4973932;28;20205;-72
2021/01/11 03:51:15;;;;;;;19.60;4.88;;;7.10;99.90;;;;;;4973518;28;20241;-71
2021/01/11 03:53:45;;;;;;;15.60;4.47;;;7.10;99.90;;;;;;4972297;28;20722;-71
2021/01/11 03:56:12;;;;;;;20.20;5.43;;;7.10;99.90;;;;;;4973412;28;20677;-71
2021/01/11 03:58:38;;;;;;;12.55;4.57;;;7.10;99.90;;;;;;4973491;28;20209;-71
2021/01/11 04:01:05;;;;;;;14.23;4.57;;;7.10;99.90;;;;;;4972895;28;20214;-71
2021/01/11 04:03:31;;;;;;;10.93;4.32;;;7.10;99.90;;;;;;4973914;28;20614;-71
2021/01/11 04:05:58;;;;;;;20.92;4.90;;;7.10;99.90;;;;;;4972887;28;20210;-71
2021/01/11 04:08:25;;;;;;;9.60;4.50;;;7.10;99.90;;;;;;4973515;28;20209;-71
2021/01/11 04:10:53;;;;;;;12.52;4.15;;;7.10;99.90;;;;;;4955284;28;20273;-71
2021/01/11 04:13:20;;;;;;;12.90;4.75;;;7.10;99.90;;;;;;4973751;28;20226;-71
2021/01/11 04:15:46;;;;;;;12.48;4.05;;;7.10;99.90;;;;;;4973144;28;20206;-71
2021/01/11 04:18:13;;;;;;;10.93;4.07;;;7.10;99.90;;;;;;4984655;28;20711;-71
2021/01/11 04:20:40;;;;;;;15.48;4.45;;;7.10;99.90;;;;;;4985693;28;20201;-71
2021/01/11 04:23:07;;;;;;;15.88;4.75;;;7.10;99.90;;;;;;4992497;28;20197;-71
2021/01/11 04:25:34;;;;;;;12.80;4.28;;;7.10;99.90;;;;;;4979703;28;20205;-71
2021/01/11 04:28:04;;;;;;;13.70;4.35;;;7.10;99.90;;;;;;4973242;28;20198;-71
2021/01/11 04:30:30;;;;;;;13.18;4.68;;;7.10;99.90;;;;;;4972901;28;20685;-71
2021/01/11 04:32:57;;;;;;;10.77;4.60;;;7.10;99.90;;;;;;4956372;28;20229;-71
2021/01/11 04:35:26;;;;;;;18.30;4.95;;;7.10;99.90;;;;;;4972937;28;20198;-71
2021/01/11 04:37:52;;;;;;;18.08;5.28;;;7.20;99.90;;;;;;4970914;28;20198;-71
2021/01/11 04:40:19;;;;;;;15.25;4.50;;;7.20;99.90;;;;;;4972230;28;20213;-71
2021/01/11 04:42:51;;;;;;;18.05;4.35;;;7.20;99.90;;;;;;4978469;28;20201;-71
2021/01/11 04:45:19;;;;;;;19.13;4.72;;;7.20;99.90;;;;;;4973238;28;20206;-72
2021/01/11 04:47:52;;;;;;;17.15;4.78;;;7.20;99.90;;;;;;4973322;28;20202;-72
2021/01/11 04:50:19;;;;;;;17.02;4.75;;;7.20;99.90;;;;;;4971750;28;20288;-72
2021/01/11 04:52:47;;;;;;;14.00;4.65;;;7.20;99.90;;;;;;4971171;28;20229;-71
2021/01/11 04:55:14;;;;;;;12.95;4.78;;;7.20;99.90;;;;;;4971908;28;20284;-71
2021/01/11 04:57:51;;;;;;;22.73;5.07;;;7.20;99.90;;;;;;4973018;28;20202;-71
2021/01/11 05:00:22;;;;;;;17.70;4.80;;;7.30;99.90;;;;;;4971693;28;20228;-71
2021/01/11 05:02:58;;;;;;;20.00;5.28;;;7.30;99.90;;;;;;4954911;28;20205;-72
2021/01/11 05:05:26;;;;;;;13.25;4.93;;;7.30;99.90;;;;;;4977528;28;20568;-72
2021/01/11 05:07:52;;;;;;;13.60;4.53;;;7.30;99.90;;;;;;4956613;28;20301;-71
2021/01/11 05:10:22;;;;;;;18.60;5.25;;;7.30;99.90;;;;;;4966553;28;20202;-72
2021/01/11 05:13:00;;;;;;;13.05;4.95;;;7.30;99.90;;;;;;4971760;28;20217;-71
2021/01/11 05:15:29;;;;;;;13.93;4.78;;;7.30;99.90;;;;;;4972948;28;20209;-72
2021/01/11 05:17:56;;;;;;;15.68;5.57;;;7.40;99.90;;;;;;4988181;28;20599;-71
2021/01/11 05:20:27;;;;;;;13.63;4.63;;;7.30;99.90;;;;;;4971003;28;20206;-71
2021/01/11 05:22:55;;;;;;;9.32;4.75;;;7.40;99.90;;;;;;4972522;28;20198;-72
2021/01/11 05:25:23;;;;;;;15.85;5.05;;;7.40;99.90;;;;;;4971324;28;20579;-72
2021/01/11 05:28:13;;;;;;;10.70;4.38;;;7.40;99.90;;;;;;4980395;28;20197;-72
2021/01/11 05:30:42;;;;;;;12.50;4.55;;;7.30;99.90;;;;;;4972904;28;20205;-71
2021/01/11 05:33:10;;;;;;;14.65;4.97;;;7.30;99.90;;;;;;4972381;28;20225;-71
2021/01/11 05:35:37;;;;;;;14.73;4.80;;;7.30;99.90;;;;;;4968238;28;20206;-71
2021/01/11 05:38:15;;;;;;;18.45;5.10;;;7.40;99.90;;;;;;4971628;28;20274;-71
2021/01/11 05:40:42;;;;;;;15.93;4.75;;;7.40;99.90;;;;;;4964773;28;20217;-72
2021/01/11 05:43:08;;;;;;;12.13;5.00;;;7.30;99.90;;;;;;4972328;28;20202;-71
2021/01/11 05:45:36;;;;;;;14.25;4.60;;;7.30;99.90;;;;;;4971049;28;20323;-71
2021/01/11 05:48:08;;;;;;;21.58;5.93;;;7.40;99.90;;;;;;4971843;28;20198;-71
2021/01/11 05:50:39;;;;;;;15.02;4.80;;;7.30;99.90;;;;;;4970962;28;20248;-72
2021/01/11 05:53:18;;;;;;;12.30;4.97;;;7.30;99.90;;;;;;4970852;28;20225;-71
2021/01/11 05:55:46;;;;;;;12.82;4.80;;;7.40;99.90;;;;;;4971620;28;20197;-71
2021/01/11 05:58:12;;;;;;;14.52;5.00;;;7.30;99.90;;;;;;4972148;28;20204;-71
2021/01/11 06:00:40;;;;;;;13.82;4.80;;;7.30;99.90;;;;;;4954616;28;20215;-71
2021/01/11 06:03:08;;;;;;;15.68;5.20;;;7.30;99.90;;;;;;4952655;28;20189;-71
2021/01/11 06:05:36;;;;;;;13.77;5.63;;;7.30;99.90;;;;;;4970889;28;20224;-72
2021/01/11 06:08:04;;;;;;;18.13;5.78;;;7.30;99.90;;;;;;4971035;28;20211;-71
2021/01/11 06:10:33;;;;;;;15.18;5.97;;;7.30;99.90;;;;;;4969867;28;20214;-72
2021/01/11 06:12:59;;;;;;;15.07;6.03;;;7.30;99.90;;;;;;4952448;28;20679;-71
2021/01/11 06:15:28;;;;;;;13.88;6.50;;;7.30;99.90;;;;;;4970217;28;20286;-71
2021/01/11 06:17:56;;;;;;;19.40;6.68;;;7.30;99.90;;;;;;4970104;28;20202;-72
2021/01/11 06:20:27;;;;;;;17.02;7.43;;;7.30;99.90;;;;;;4982322;28;20661;-72
2021/01/11 06:23:25;;;;;;;17.02;7.00;;;7.20;99.90;;;;;;4976649;28;20693;-73
2021/01/11 06:25:52;;;;;;;15.40;6.47;;;7.20;99.90;;;;;;4970570;28;20206;-73
2021/01/11 06:28:29;;;;;;;19.27;6.53;;;7.20;99.90;;;;;;4953001;28;20213;-71
2021/01/11 06:31:09;;;;;;;16.98;6.00;;;7.20;99.90;;;;;;4976568;28;20208;-71
2021/01/11 06:33:36;;;;;;;18.50;6.30;;;7.20;99.90;;;;;;4990120;28;20225;-75
2021/01/11 06:36:18;;;;;;;17.25;6.13;;;7.20;99.90;;;;;;4977955;28;20210;-73
2021/01/11 06:38:46;;;;;;;13.82;5.05;;;7.20;99.90;;;;;;4953061;28;20644;-73
2021/01/11 06:41:15;;;;;;;10.90;4.95;;;7.20;99.90;;;;;;4970355;28;20966;-73
2021/01/11 06:43:44;;;;;;;12.50;5.13;;;7.20;99.90;;;;;;4970600;28;20190;-73
2021/01/11 06:46:12;;;;;;;15.57;4.93;;;7.10;99.90;;;;;;4952785;28;20205;-73
2021/01/11 06:48:41;;;;;;;10.20;4.82;;;7.10;99.90;;;;;;4970606;28;20555;-73
2021/01/11 06:51:10;;;;;;;10.60;4.40;;;7.10;99.90;;;;;;4969150;28;20224;-73
2021/01/11 06:53:37;;;;;;;15.13;4.93;;;7.10;99.90;;;;;;4969676;28;20753;-72
2021/01/11 06:56:08;;;;;;;12.85;4.85;;;7.10;99.90;;;;;;4977282;28;20252;-71
2021/01/11 06:58:36;;;;;;;11.50;4.90;;;7.10;99.90;;;;;;4970419;28;23736;-73
2021/01/11 07:01:04;;;;;;;13.65;4.28;;;7.10;99.90;;;;;;4970344;28;20658;-72
2021/01/11 07:03:44;;;;;;;12.45;4.50;;;7.10;99.90;;;;;;4969928;28;20220;-72
2021/01/11 07:06:34;;;;;;;19.92;4.90;;;7.10;99.90;;;;;;4970465;28;20213;-73
2021/01/11 07:09:08;;;;;;;12.45;4.10;;;7.10;99.90;;;;;;4975904;28;20661;-72
2021/01/11 07:11:36;;;;;;;14.88;4.32;;;7.10;99.90;;;;;;4985028;28;20214;-73
2021/01/11 07:14:02;;;;;;;11.77;4.35;;;7.10;99.90;;;;;;4970107;28;20210;-73
2021/01/11 07:16:42;;;;;;;11.40;3.97;;;7.10;99.90;;;;;;4973092;28;20214;-73
2021/01/11 07:19:09;;;;;;;7.85;4.10;;;7.10;99.90;;;;;;4978325;28;20197;-73
2021/01/11 07:21:36;;;;;;;6.50;3.63;;;7.10;99.90;;;;;;4975557;28;20209;-72
2021/01/11 07:24:07;;;;;;;9.35;3.63;;;7.10;99.90;;;;;;4974067;28;20202;-73
2021/01/11 07:26:34;;;;;;;10.50;3.15;;;7.10;99.90;;;;;;4973682;28;20686;-72
2021/01/11 07:29:03;;;;;;;15.18;3.42;;;7.20;99.90;;;;;;4974025;28;20663;-72
2021/01/11 07:31:32;;;;;;;12.35;3.42;;;7.10;99.90;;;;;;4973691;28;20217;-72
2021/01/11 07:34:05;;;;;;;10.90;3.63;;;7.20;99.90;;;;;;4971087;28;20690;-73
2021/01/11 07:36:38;;;;;;;10.05;3.20;;;7.20;99.90;;;;;;4973838;28;20216;-73
2021/01/11 07:39:10;;;;;;;9.15;3.03;;;7.20;99.90;;;;;;4980304;28;20204;-73
2021/01/11 07:41:38;;;;;;;7.28;3.53;;;7.20;99.90;;;;;;4974935;28;20216;-71
2021/01/11 07:44:12;;;;;;;9.63;3.25;;;7.20;99.90;;;;;;4973729;28;20218;-72
2021/01/11 07:46:39;;;;;;;11.40;3.65;;;7.10;99.90;;;;;;4970281;28;20205;-73
2021/01/11 07:49:16;;;;;;;10.98;3.22;;;7.20;99.90;;;;;;4968456;28;20201;-72
2021/01/11 07:51:46;;;;;;;6.03;3.08;;;7.20;99.90;;;;;;4975973;28;20236;-73
2021/01/11 07:54:15;;;;;;;8.73;3.47;;;7.20;99.90;;;;;;4976619;28;20686;-72
2021/01/11 07:56:43;;;;;;;10.20;4.03;;;7.20;99.90;;;;;;4977853;28;20695;-73
2021/01/11 07:59:10;;;;;;;7.63;4.00;;;7.20;99.90;;;;;;4974840;28;20199;-73
2021/01/11 08:01:40;;;;;;;14.15;3.90;;;7.20;99.90;;;;;;4973398;28;20194;-73
2021/01/11 08:04:09;;;;;;;9.15;3.45;;;7.10;99.90;;;;;;4972812;28;20673;-73
2021/01/11 08:06:49;;;;;;;10.30;3.83;;;7.20;99.90;;;;;;4977449;28;20985;-73
2021/01/11 08:09:17;;;;;;;13.25;3.90;;;7.20;99.90;;;;;;4982105;28;20212;-73
2021/01/11 08:11:44;;;;;;;8.60;3.75;;;7.20;99.90;;;;;;4970800;28;20578;-72
2021/01/11 08:14:11;;;;;;;10.70;3.53;;;7.20;99.90;;;;;;4971943;28;20220;-72
2021/01/11 08:16:40;;;;;;;15.90;4.05;;;7.20;99.90;;;;;;4971590;28;20210;-71
2021/01/11 08:19:07;;;;;;;12.45;4.22;;;7.20;99.90;;;;;;4971675;28;20212;-72
2021/01/11 08:21:34;;;;;;;11.70;3.63;;;7.20;99.90;;;;;;4972187;28;20213;-72
2021/01/11 08:24:03;;;;;;;13.10;3.78;;;7.20;99.90;;;;;;4971850;28;20208;-75
2021/01/11 08:26:32;;;;;;;12.68;3.67;;;7.20;99.90;;;;;;4972915;28;20201;-74
2021/01/11 08:28:59;;;;;;;19.02;3.65;;;7.20;99.90;;;;;;4967367;28;22722;-72
2021/01/11 08:31:26;;;;;;;11.13;3.60;;;7.30;99.90;;;;;;4968352;28;20212;-72
2021/01/11 08:33:53;;;;;;;10.25;3.30;;;7.30;99.90;;;;;;4970959;28;20220;-72
2021/01/11 08:36:23;;;;;;;9.77;3.45;;;7.30;99.90;;;;;;4970548;28;20210;-72
2021/01/11 08:39:09;;;;;;;12.25;3.17;;;7.30;99.90;;;;;;4972804;28;20197;-72
2021/01/11 08:41:37;;;;;;;11.15;3.40;;;7.30;99.90;;;;;;4969860;28;20719;-71
2021/01/11 08:44:03;;;;;;;12.90;3.55;;;7.30;99.90;;;;;;4972493;28;20277;-72
2021/01/11 08:46:55;;;;;;;13.73;3.58;;;7.30;99.90;;;;;;4971397;28;20208;-72
2021/01/11 08:49:22;;;;;;;12.38;3.67;;;7.30;99.90;;;;;;4987641;28;20236;-73
2021/01/11 08:51:49;;;;;;;10.13;3.60;;;7.30;99.90;;;;;;4974041;28;20237;-72
2021/01/11 08:54:30;;;;;;;12.95;3.95;;;7.30;99.90;;;;;;4958518;28;20221;-71
2021/01/11 08:56:57;;;;;;;21.27;3.80;;;7.30;99.90;;;;;;4971559;28;20236;-72
2021/01/11 08:59:24;;;;;;;17.00;3.50;;;7.30;99.90;;;;;;4971198;28;20210;-72
2021/01/11 09:01:51;;;;;;;14.57;3.45;;;7.40;99.90;;;;;;4970625;28;20205;-72
2021/01/11 09:04:35;;;;;;;17.02;3.30;;;7.30;99.90;;;;;;4972504;28;20646;-72
2021/01/11 09:07:05;;;;;;;17.05;3.50;;;7.30;99.90;;;;;;4971193;28;20202;-71
2021/01/11 09:09:33;;;;;;;14.65;3.40;;;7.30;99.90;;;;;;4971897;28;20206;-71
2021/01/11 09:12:02;;;;;;;15.35;3.25;;;7.30;99.90;;;;;;4971352;28;20198;-72
2021/01/11 09:14:31;;;;;;;18.80;4.00;;;7.30;99.90;;;;;;4972182;28;20213;-72
2021/01/11 09:17:00;;;;;;;13.23;3.38;;;7.40;99.90;;;;;;4974103;28;20205;-74
2021/01/11 09:19:27;;;;;;;16.05;3.40;;;7.40;99.90;;;;;;4973799;28;20224;-73
2021/01/11 09:22:00;;;;;;;12.07;3.15;;;7.40;99.90;;;;;;4975831;28;20205;-72
2021/01/11 09:24:27;;;;;;;11.35;3.30;;;7.40;99.90;;;;;;4971097;28;20198;-72
2021/01/11 09:26:55;;;;;;;13.73;3.10;;;7.40;99.90;;;;;;4970569;28;20604;-73
2021/01/11 09:29:21;;;;;;;13.82;3.40;;;7.40;99.90;;;;;;4971824;28;20206;-75
2021/01/11 09:31:49;;;;;;;14.68;3.60;;;7.50;99.90;;;;;;4970407;28;20206;-72
2021/01/11 09:34:15;;;;;;;13.98;3.70;;;7.50;99.90;;;;;;4974627;28;20213;-72
2021/01/11 09:36:44;;;;;;;16.25;3.28;;;7.50;99.90;;;;;;4975318;28;20582;-72
2021/01/11 09:39:11;;;;;;;13.60;3.63;;;7.50;99.90;;;;;;4971010;28;20210;-71
2021/01/11 09:41:46;;;;;;;17.45;3.40;;;7.60;99.90;;;;;;4971878;28;20198;-72
2021/01/11 09:44:13;;;;;;;14.02;3.13;;;7.60;99.90;;;;;;4971393;28;20207;-72
2021/01/11 09:46:45;;;;;;;14.80;3.70;;;7.60;99.90;;;;;;4951941;28;20212;-71
2021/01/11 09:49:12;;;;;;;16.17;3.63;;;7.60;99.90;;;;;;4968726;28;20249;-73
2021/01/11 09:51:39;;;;;;;14.98;3.20;;;7.60;99.90;;;;;;4971308;28;21051;-72
2021/01/11 09:54:07;;;;;;;15.38;2.90;;;7.60;99.90;;;;;;4966704;28;20583;-72
2021/01/11 09:56:34;;;;;;;15.23;3.42;;;7.60;99.90;;;;;;4965612;28;20214;-73
2021/01/11 09:59:00;;;;;;;11.90;3.60;;;7.60;99.90;;;;;;4966631;28;20583;-74
2021/01/11 10:01:36;;;;;;;17.65;3.47;;;7.60;99.90;;;;;;4962638;28;20202;-73
2021/01/11 10:04:03;;;;;;;17.58;3.45;;;7.60;99.90;;;;;;4953225;28;20210;-72
2021/01/11 10:06:37;;;;;;;15.57;3.30;;;7.60;99.90;;;;;;4969554;28;20210;-73
2021/01/11 10:09:04;;;;;;;15.38;3.50;;;7.60;99.90;;;;;;4970227;28;20237;-73
2021/01/11 10:11:30;;;;;;;18.95;3.88;;;7.70;99.90;;;;;;4978437;28;20220;-73
2021/01/11 10:13:57;;;;;;;20.85;3.40;;;7.60;99.90;;;;;;4986093;28;20224;-73
2021/01/11 10:16:23;;;;;;;22.67;3.38;;;7.70;99.90;;;;;;4979021;28;20206;-72
2021/01/11 10:18:50;;;;;;;17.08;3.63;;;7.70;99.90;;;;;;4980744;28;20196;-73
2021/01/11 10:21:17;;;;;;;17.30;3.33;;;7.70;99.90;;;;;;4980094;28;20206;-73
2021/01/11 10:23:43;;;;;;;15.02;3.35;;;7.70;99.90;;;;;;4970840;28;20212;-73
2021/01/11 10:26:18;;;;;;;15.02;3.53;;;7.70;99.90;;;;;;4970104;28;20206;-72
2021/01/11 10:28:44;;;;;;;14.70;3.22;;;7.70;99.90;;;;;;4969256;28;20205;-72
2021/01/11 10:31:11;;;;;;;25.20;4.25;;;7.70;99.90;;;;;;4967109;28;20202;-72
2021/01/11 10:33:37;;;;;;;13.95;3.75;;;7.70;99.90;;;;;;4952897;28;20218;-73
2021/01/11 10:36:05;;;;;;;15.18;3.58;;;7.70;99.90;;;;;;4969799;28;20225;-72
2021/01/11 10:38:32;;;;;;;11.80;3.47;;;7.70;99.90;;;;;;4952988;28;20218;-73
2021/01/11 10:40:58;;;;;;;13.85;3.13;;;7.70;99.90;;;;;;4949728;28;20377;-72
2021/01/11 10:43:25;;;;;;;13.90;3.60;;;7.70;99.90;;;;;;4970673;28;20193;-72
2021/01/11 10:45:52;;;;;;;10.35;3.20;;;7.70;99.90;;;;;;4973177;28;20280;-72
2021/01/11 10:48:18;;;;;;;13.27;3.60;;;7.70;99.90;;;;;;4990298;28;20200;-72
2021/01/11 10:50:44;;;;;;;17.83;4.40;;;7.80;99.90;;;;;;4986666;28;20733;-73
2021/01/11 10:53:12;;;;;;;14.88;3.78;;;7.80;99.90;;;;;;4957144;28;20226;-71
2021/01/11 10:55:38;;;;;;;13.52;4.10;;;7.80;99.90;;;;;;4986147;28;20233;-75
2021/01/11 10:58:05;;;;;;;13.05;3.50;;;7.80;99.90;;;;;;4986717;28;20224;-75
2021/01/11 11:00:32;;;;;;;14.30;3.40;;;7.80;99.90;;;;;;4988366;28;20213;-72
2021/01/11 11:02:58;;;;;;;9.45;3.40;;;7.70;99.90;;;;;;4973306;28;20203;-73
2021/01/11 11:05:24;;;;;;;7.88;3.25;;;7.80;99.90;;;;;;4980490;28;20665;-74
2021/01/11 11:07:52;;;;;;;10.82;3.05;;;7.80;99.90;;;;;;4970333;28;20261;-74
2021/01/11 11:10:20;;;;;;;12.40;3.67;;;7.80;99.90;;;;;;4950998;28;20670;-74
2021/01/11 11:12:46;;;;;;;18.02;3.85;;;7.80;99.90;;;;;;4975854;28;20218;-72
2021/01/11 11:15:13;;;;;;;10.52;3.40;;;7.80;99.90;;;;;;4974250;28;20216;-71
2021/01/11 11:17:40;;;;;;;13.27;3.30;;;7.80;99.90;;;;;;4976303;28;20554;-73
2021/01/11 11:20:08;;;;;;;12.32;3.08;;;7.80;99.90;;;;;;4959255;28;20214;-73
2021/01/11 11:22:34;;;;;;;9.05;3.80;;;7.80;99.90;;;;;;4974794;28;20201;-76
2021/01/11 11:25:05;;;;;;;9.95;2.90;;;7.80;99.90;;;;;;4954797;28;20214;-73
2021/01/11 11:27:34;;;;;;;10.55;3.28;;;7.90;99.90;;;;;;4954966;28;20233;-75
2021/01/11 11:30:00;;;;;;;11.52;3.17;;;7.90;99.90;;;;;;4968540;28;20213;-72
2021/01/11 11:32:29;;;;;;;14.15;3.00;;;7.90;99.90;;;;;;4972438;28;20667;-73
2021/01/11 11:34:56;;;;;;;7.00;2.78;;;7.90;99.90;;;;;;4968786;28;20258;-72
2021/01/11 11:37:22;;;;;;;9.95;3.08;;;7.90;99.90;;;;;;4971601;28;20255;-74
2021/01/11 11:39:49;;;;;;;8.38;2.85;;;7.90;99.90;;;;;;4984066;28;20201;-71
2021/01/11 11:42:15;;;;;;;24.70;3.08;;;7.90;99.90;;;;;;4979669;28;20205;-72
2021/01/11 11:44:42;;;;;;;11.30;3.20;;;7.90;99.90;;;;;;4979834;28;20212;-71
2021/01/11 11:47:08;;;;;;;14.13;2.97;;;7.90;99.90;;;;;;4976855;28;20261;-74
2021/01/11 11:49:35;;;;;;;10.50;2.70;;;7.90;99.90;;;;;;4976105;28;20669;-73
2021/01/11 11:52:01;;;;;;;15.40;3.08;;;7.90;99.90;;;;;;4976926;28;20238;-73
2021/01/11 11:54:28;;;;;;;9.18;3.10;;;7.90;99.90;;;;;;4971927;28;20694;-71
2021/01/11 11:56:54;;;;;;;13.35;3.15;;;7.80;99.90;;;;;;4972016;28;20207;-72
2021/01/11 11:59:20;;;;;;;17.50;3.30;;;7.90;99.90;;;;;;4975587;28;20201;-74
2021/01/11 12:01:48;;;;;;;12.18;3.22;;;7.90;99.90;;;;;;4970208;28;20672;-74
2021/01/11 12:04:16;;;;;;;11.30;2.72;;;7.80;99.80;;;;;;4958285;28;20190;-72
2021/01/11 12:06:43;;;;;;;11.18;2.85;;;7.90;99.80;;;;;;4956583;28;20694;-71
2021/01/11 12:09:10;;;;;;;11.55;3.13;;;7.80;99.60;;;;;;4973688;28;20202;-72
2021/01/11 12:11:44;;;;;;;8.55;2.83;;;7.90;99.60;;;;;;4981630;28;20213;-74
2021/01/11 12:14:11;;;;;;;8.90;2.47;;;7.90;99.50;;;;;;4974514;28;20217;-72
2021/01/11 12:16:38;;;;;;;12.93;2.70;;;7.90;99.50;;;;;;4975609;28;20218;-72
2021/01/11 12:19:05;;;;;;;10.13;2.92;;;7.90;99.40;;;;;;4973542;28;20198;-73
2021/01/11 12:21:33;;;;;;;19.08;3.22;;;7.90;99.40;;;;;;4973871;28;20256;-72
2021/01/11 12:24:00;;;;;;;15.57;3.33;;;7.90;99.50;;;;;;4972214;28;20337;-72
2021/01/11 12:26:26;;;;;;;12.32;2.85;;;7.90;99.50;;;;;;4974058;28;20202;-74
2021/01/11 12:28:53;;;;;;;12.57;3.17;;;7.80;99.50;;;;;;4973256;28;20268;-78
2021/01/11 12:31:27;;;;;;;15.50;3.17;;;7.90;99.60;;;;;;4977518;28;20611;-74
2021/01/11 12:33:53;;;;;;;13.88;3.65;;;7.90;99.70;;;;;;4954528;28;20229;-74
2021/01/11 12:36:25;;;;;;;12.80;3.40;;;7.80;99.60;;;;;;4974788;28;20210;-74
2021/01/11 12:38:52;;;;;;;10.95;3.00;;;7.80;99.60;;;;;;4964183;28;20218;-74
2021/01/11 12:41:19;;;;;;;15.63;3.08;;;7.80;99.50;;;;;;4970834;28;20213;-74
2021/01/11 12:43:46;;;;;;;10.00;3.15;;;7.80;99.50;;;;;;4959715;28;20674;-72
2021/01/11 12:46:13;;;;;;;7.75;2.78;;;7.80;99.40;;;;;;4992247;28;20201;-73
2021/01/11 12:48:39;;;;;;;8.52;2.55;;;7.80;99.30;;;;;;4979995;28;20217;-73
2021/01/11 12:51:11;;;;;;;10.50;3.10;;;7.80;99.30;;;;;;4973627;28;20248;-73
2021/01/11 12:53:39;;;;;;;11.25;2.90;;;7.70;99.30;;;;;;4973676;28;20213;-75
2021/01/11 12:56:15;;;;;;;10.95;2.92;;;7.80;99.30;;;;;;4970327;28;20197;-73
2021/01/11 12:58:42;;;;;;;12.75;2.85;;;7.70;99.30;;;;;;4969888;28;20576;-72